sensor_id;sensor_type;location;lat;lon;timestamp;P1;durP1;ratioP1;P2;durP2;ratioP2
21162;SDS011;10739;52.198;20.908;2023-12-20T00:02:00;35.60;;;25.05;;
21162;SDS011;10739;52.198;20.908;2023-12-20T00:04:28;35.78;;;26.33;;
21162;SDS011;10739;52.198;20.908;2023-12-20T00:06:54;42.53;;;27.55;;
21162;SDS011;10739;52.198;20.908;2023-12-20T00:09:21;36.30;;;26.45;;
21162;SDS011;10739;52.198;20.908;2023-12-20T00:11:47;36.20;;;24.77;;
21162;SDS011;10739;52.198;20.908;2023-12-20T00:14:13;37.63;;;25.83;;
21162;SDS011;10739;52.198;20.908;2023-12-20T00:16:40;33.20;;;25.27;;
21162;SDS011;10739;52.198;20.908;2023-12-20T00:19:06;38.58;;;27.38;;
21162;SDS011;10739;52.198;20.908;2023-12-20T00:21:33;34.05;;;24.42;;
21162;SDS011;10739;52.198;20.908;2023-12-20T00:23:59;36.05;;;25.23;;
21162;SDS011;10739;52.198;20.908;2023-12-20T00:26:26;37.95;;;24.50;;
21162;SDS011;10739;52.198;20.908;2023-12-20T00:28:53;35.50;;;24.60;;
21162;SDS011;10739;52.198;20.908;2023-12-20T00:31:19;35.80;;;24.85;;
21162;SDS011;10739;52.198;20.908;2023-12-20T00:33:46;35.03;;;25.05;;
21162;SDS011;10739;52.198;20.908;2023-12-20T00:36:12;32.28;;;23.80;;
21162;SDS011;10739;52.198;20.908;2023-12-20T00:38:38;34.28;;;23.90;;
21162;SDS011;10739;52.198;20.908;2023-12-20T00:41:05;31.77;;;23.75;;
21162;SDS011;10739;52.198;20.908;2023-12-20T00:43:31;33.88;;;24.70;;
21162;SDS011;10739;52.198;20.908;2023-12-20T00:45:57;34.53;;;24.40;;
21162;SDS011;10739;52.198;20.908;2023-12-20T00:48:25;33.92;;;23.15;;
21162;SDS011;10739;52.198;20.908;2023-12-20T00:50:56;32.17;;;22.60;;
21162;SDS011;10739;52.198;20.908;2023-12-20T00:53:23;31.52;;;23.20;;
21162;SDS011;10739;52.198;20.908;2023-12-20T00:55:49;31.35;;;22.88;;
21162;SDS011;10739;52.198;20.908;2023-12-20T00:58:15;32.35;;;23.92;;
21162;SDS011;10739;52.198;20.908;2023-12-20T01:00:42;31.00;;;22.38;;
21162;SDS011;10739;52.198;20.908;2023-12-20T01:03:09;33.10;;;22.45;;
21162;SDS011;10739;52.198;20.908;2023-12-20T01:05:35;28.67;;;21.40;;
21162;SDS011;10739;52.198;20.908;2023-12-20T01:08:01;30.15;;;22.75;;
21162;SDS011;10739;52.198;20.908;2023-12-20T01:10:28;29.55;;;22.83;;
21162;SDS011;10739;52.198;20.908;2023-12-20T01:12:55;30.45;;;22.02;;
21162;SDS011;10739;52.198;20.908;2023-12-20T01:15:21;32.33;;;21.95;;
21162;SDS011;10739;52.198;20.908;2023-12-20T01:17:48;29.67;;;22.10;;
21162;SDS011;10739;52.198;20.908;2023-12-20T01:20:15;31.10;;;20.83;;
21162;SDS011;10739;52.198;20.908;2023-12-20T01:22:42;31.63;;;21.83;;
21162;SDS011;10739;52.198;20.908;2023-12-20T01:25:08;30.52;;;22.45;;
21162;SDS011;10739;52.198;20.908;2023-12-20T01:27:34;29.70;;;22.52;;
21162;SDS011;10739;52.198;20.908;2023-12-20T01:30:01;30.80;;;22.20;;
21162;SDS011;10739;52.198;20.908;2023-12-20T01:32:27;28.73;;;21.88;;
21162;SDS011;10739;52.198;20.908;2023-12-20T01:34:53;28.40;;;22.88;;
21162;SDS011;10739;52.198;20.908;2023-12-20T01:37:20;30.50;;;22.77;;
21162;SDS011;10739;52.198;20.908;2023-12-20T01:39:49;33.72;;;22.88;;
21162;SDS011;10739;52.198;20.908;2023-12-20T01:42:15;30.58;;;22.88;;
21162;SDS011;10739;52.198;20.908;2023-12-20T01:44:41;29.27;;;22.33;;
21162;SDS011;10739;52.198;20.908;2023-12-20T01:47:08;29.88;;;21.40;;
21162;SDS011;10739;52.198;20.908;2023-12-20T01:49:35;31.48;;;19.95;;
21162;SDS011;10739;52.198;20.908;2023-12-20T01:52:02;29.23;;;21.83;;
21162;SDS011;10739;52.198;20.908;2023-12-20T01:54:29;28.33;;;21.20;;
21162;SDS011;10739;52.198;20.908;2023-12-20T01:56:57;28.58;;;22.05;;
21162;SDS011;10739;52.198;20.908;2023-12-20T01:59:23;32.55;;;23.50;;
21162;SDS011;10739;52.198;20.908;2023-12-20T02:01:50;34.90;;;25.85;;
21162;SDS011;10739;52.198;20.908;2023-12-20T02:04:17;34.22;;;26.60;;
21162;SDS011;10739;52.198;20.908;2023-12-20T02:06:44;33.63;;;26.42;;
21162;SDS011;10739;52.198;20.908;2023-12-20T02:09:12;32.92;;;24.48;;
21162;SDS011;10739;52.198;20.908;2023-12-20T02:11:40;29.20;;;22.98;;
21162;SDS011;10739;52.198;20.908;2023-12-20T02:14:06;27.73;;;21.10;;
21162;SDS011;10739;52.198;20.908;2023-12-20T02:16:33;28.70;;;21.67;;
21162;SDS011;10739;52.198;20.908;2023-12-20T02:18:59;26.80;;;20.02;;
21162;SDS011;10739;52.198;20.908;2023-12-20T02:21:31;25.85;;;18.58;;
21162;SDS011;10739;52.198;20.908;2023-12-20T02:23:59;23.83;;;17.90;;
21162;SDS011;10739;52.198;20.908;2023-12-20T02:26:25;27.23;;;19.60;;
21162;SDS011;10739;52.198;20.908;2023-12-20T02:28:51;24.33;;;17.48;;
21162;SDS011;10739;52.198;20.908;2023-12-20T02:31:20;25.70;;;17.30;;
21162;SDS011;10739;52.198;20.908;2023-12-20T02:33:48;23.02;;;17.23;;
21162;SDS011;10739;52.198;20.908;2023-12-20T02:36:14;20.88;;;15.63;;
21162;SDS011;10739;52.198;20.908;2023-12-20T02:38:41;20.02;;;15.27;;
21162;SDS011;10739;52.198;20.908;2023-12-20T02:41:07;17.92;;;14.20;;
21162;SDS011;10739;52.198;20.908;2023-12-20T02:43:33;19.05;;;13.98;;
21162;SDS011;10739;52.198;20.908;2023-12-20T02:45:59;18.00;;;13.18;;
21162;SDS011;10739;52.198;20.908;2023-12-20T02:48:26;16.40;;;12.50;;
21162;SDS011;10739;52.198;20.908;2023-12-20T02:50:52;17.13;;;12.75;;
21162;SDS011;10739;52.198;20.908;2023-12-20T02:53:18;16.77;;;11.77;;
21162;SDS011;10739;52.198;20.908;2023-12-20T02:55:45;18.70;;;10.48;;
21162;SDS011;10739;52.198;20.908;2023-12-20T02:58:11;13.00;;;10.90;;
21162;SDS011;10739;52.198;20.908;2023-12-20T03:00:37;11.90;;;9.18;;
21162;SDS011;10739;52.198;20.908;2023-12-20T03:03:03;10.55;;;9.23;;
21162;SDS011;10739;52.198;20.908;2023-12-20T03:05:30;10.82;;;9.05;;
21162;SDS011;10739;52.198;20.908;2023-12-20T03:07:56;11.98;;;9.23;;
21162;SDS011;10739;52.198;20.908;2023-12-20T03:10:22;10.02;;;8.10;;
21162;SDS011;10739;52.198;20.908;2023-12-20T03:12:49;11.98;;;8.25;;
21162;SDS011;10739;52.198;20.908;2023-12-20T03:15:15;10.35;;;7.40;;
21162;SDS011;10739;52.198;20.908;2023-12-20T03:17:41;8.10;;;6.75;;
21162;SDS011;10739;52.198;20.908;2023-12-20T03:20:08;8.27;;;6.78;;
21162;SDS011;10739;52.198;20.908;2023-12-20T03:22:35;6.60;;;5.90;;
21162;SDS011;10739;52.198;20.908;2023-12-20T03:25:01;7.80;;;7.00;;
21162;SDS011;10739;52.198;20.908;2023-12-20T03:27:28;7.93;;;6.95;;
21162;SDS011;10739;52.198;20.908;2023-12-20T03:29:54;8.70;;;7.22;;
21162;SDS011;10739;52.198;20.908;2023-12-20T03:32:21;8.10;;;7.03;;
21162;SDS011;10739;52.198;20.908;2023-12-20T03:34:47;9.48;;;7.75;;
21162;SDS011;10739;52.198;20.908;2023-12-20T03:37:14;11.63;;;7.78;;
21162;SDS011;10739;52.198;20.908;2023-12-20T03:39:40;10.13;;;8.18;;
21162;SDS011;10739;52.198;20.908;2023-12-20T03:42:06;7.93;;;7.13;;
21162;SDS011;10739;52.198;20.908;2023-12-20T03:44:33;11.57;;;8.60;;
21162;SDS011;10739;52.198;20.908;2023-12-20T03:46:59;9.77;;;8.30;;
21162;SDS011;10739;52.198;20.908;2023-12-20T03:49:25;8.32;;;7.35;;
21162;SDS011;10739;52.198;20.908;2023-12-20T03:51:52;8.23;;;7.05;;
21162;SDS011;10739;52.198;20.908;2023-12-20T03:54:18;9.07;;;7.50;;
21162;SDS011;10739;52.198;20.908;2023-12-20T03:56:44;10.55;;;8.25;;
21162;SDS011;10739;52.198;20.908;2023-12-20T03:59:10;11.38;;;9.10;;
21162;SDS011;10739;52.198;20.908;2023-12-20T04:01:37;11.27;;;8.82;;
21162;SDS011;10739;52.198;20.908;2023-12-20T04:04:03;11.65;;;9.50;;
21162;SDS011;10739;52.198;20.908;2023-12-20T04:06:29;12.90;;;10.15;;
21162;SDS011;10739;52.198;20.908;2023-12-20T04:08:56;14.00;;;11.52;;
21162;SDS011;10739;52.198;20.908;2023-12-20T04:11:22;13.63;;;11.18;;
21162;SDS011;10739;52.198;20.908;2023-12-20T04:13:48;16.85;;;11.95;;
21162;SDS011;10739;52.198;20.908;2023-12-20T04:16:15;15.20;;;12.15;;
21162;SDS011;10739;52.198;20.908;2023-12-20T04:18:41;15.20;;;12.07;;
21162;SDS011;10739;52.198;20.908;2023-12-20T04:21:07;16.33;;;13.38;;
21162;SDS011;10739;52.198;20.908;2023-12-20T04:23:33;16.35;;;12.38;;
21162;SDS011;10739;52.198;20.908;2023-12-20T04:26:00;18.40;;;13.55;;
21162;SDS011;10739;52.198;20.908;2023-12-20T04:28:27;19.88;;;13.63;;
21162;SDS011;10739;52.198;20.908;2023-12-20T04:30:55;17.33;;;13.43;;
21162;SDS011;10739;52.198;20.908;2023-12-20T04:33:22;18.38;;;14.00;;
21162;SDS011;10739;52.198;20.908;2023-12-20T04:35:48;19.15;;;14.27;;
21162;SDS011;10739;52.198;20.908;2023-12-20T04:38:15;18.48;;;14.60;;
21162;SDS011;10739;52.198;20.908;2023-12-20T04:40:41;16.10;;;13.80;;
21162;SDS011;10739;52.198;20.908;2023-12-20T04:43:07;15.18;;;13.20;;
21162;SDS011;10739;52.198;20.908;2023-12-20T04:45:34;19.20;;;13.63;;
21162;SDS011;10739;52.198;20.908;2023-12-20T04:48:01;19.20;;;14.65;;
21162;SDS011;10739;52.198;20.908;2023-12-20T04:50:28;20.48;;;15.05;;
21162;SDS011;10739;52.198;20.908;2023-12-20T04:52:54;19.13;;;14.77;;
21162;SDS011;10739;52.198;20.908;2023-12-20T04:55:21;20.05;;;14.77;;
21162;SDS011;10739;52.198;20.908;2023-12-20T04:57:47;17.85;;;14.80;;
21162;SDS011;10739;52.198;20.908;2023-12-20T05:00:13;21.42;;;15.93;;
21162;SDS011;10739;52.198;20.908;2023-12-20T05:02:40;19.15;;;14.43;;
21162;SDS011;10739;52.198;20.908;2023-12-20T05:05:07;20.50;;;15.20;;
21162;SDS011;10739;52.198;20.908;2023-12-20T05:07:34;21.15;;;15.48;;
21162;SDS011;10739;52.198;20.908;2023-12-20T05:10:00;20.27;;;14.95;;
21162;SDS011;10739;52.198;20.908;2023-12-20T05:12:29;20.73;;;15.77;;
21162;SDS011;10739;52.198;20.908;2023-12-20T05:14:59;20.02;;;16.38;;
21162;SDS011;10739;52.198;20.908;2023-12-20T05:17:25;19.50;;;15.93;;
21162;SDS011;10739;52.198;20.908;2023-12-20T05:19:51;23.05;;;16.60;;
21162;SDS011;10739;52.198;20.908;2023-12-20T05:22:18;22.48;;;16.70;;
21162;SDS011;10739;52.198;20.908;2023-12-20T05:24:45;22.33;;;17.13;;
21162;SDS011;10739;52.198;20.908;2023-12-20T05:27:12;19.38;;;16.15;;
21162;SDS011;10739;52.198;20.908;2023-12-20T05:29:38;21.50;;;17.05;;
21162;SDS011;10739;52.198;20.908;2023-12-20T05:32:05;21.92;;;16.38;;
21162;SDS011;10739;52.198;20.908;2023-12-20T05:34:32;20.75;;;16.92;;
21162;SDS011;10739;52.198;20.908;2023-12-20T05:36:58;25.55;;;17.38;;
21162;SDS011;10739;52.198;20.908;2023-12-20T05:39:24;20.83;;;16.23;;
21162;SDS011;10739;52.198;20.908;2023-12-20T05:41:51;19.90;;;15.95;;
21162;SDS011;10739;52.198;20.908;2023-12-20T05:44:17;21.45;;;16.17;;
21162;SDS011;10739;52.198;20.908;2023-12-20T05:46:44;19.95;;;15.70;;
21162;SDS011;10739;52.198;20.908;2023-12-20T05:49:10;24.42;;;16.65;;
21162;SDS011;10739;52.198;20.908;2023-12-20T05:51:36;21.17;;;16.17;;
21162;SDS011;10739;52.198;20.908;2023-12-20T05:54:03;22.42;;;16.48;;
21162;SDS011;10739;52.198;20.908;2023-12-20T05:56:29;26.90;;;17.63;;
21162;SDS011;10739;52.198;20.908;2023-12-20T05:58:56;24.55;;;16.80;;
21162;SDS011;10739;52.198;20.908;2023-12-20T06:01:24;22.02;;;16.63;;
21162;SDS011;10739;52.198;20.908;2023-12-20T06:03:50;24.27;;;15.77;;
21162;SDS011;10739;52.198;20.908;2023-12-20T06:06:16;20.05;;;15.52;;
21162;SDS011;10739;52.198;20.908;2023-12-20T06:08:43;23.42;;;16.00;;
21162;SDS011;10739;52.198;20.908;2023-12-20T06:11:10;20.77;;;16.05;;
21162;SDS011;10739;52.198;20.908;2023-12-20T06:13:36;21.27;;;15.23;;
21162;SDS011;10739;52.198;20.908;2023-12-20T06:16:03;22.17;;;14.57;;
21162;SDS011;10739;52.198;20.908;2023-12-20T06:18:32;22.83;;;15.05;;
21162;SDS011;10739;52.198;20.908;2023-12-20T06:20:58;21.30;;;14.98;;
21162;SDS011;10739;52.198;20.908;2023-12-20T06:23:24;23.08;;;14.07;;
21162;SDS011;10739;52.198;20.908;2023-12-20T06:25:52;22.98;;;15.20;;
21162;SDS011;10739;52.198;20.908;2023-12-20T06:28:18;22.23;;;14.95;;
21162;SDS011;10739;52.198;20.908;2023-12-20T06:30:45;21.40;;;15.80;;
21162;SDS011;10739;52.198;20.908;2023-12-20T06:33:14;22.20;;;16.92;;
21162;SDS011;10739;52.198;20.908;2023-12-20T06:35:41;22.98;;;16.70;;
21162;SDS011;10739;52.198;20.908;2023-12-20T06:38:07;24.40;;;18.40;;
21162;SDS011;10739;52.198;20.908;2023-12-20T06:40:34;24.27;;;18.20;;
21162;SDS011;10739;52.198;20.908;2023-12-20T06:43:03;25.15;;;18.42;;
21162;SDS011;10739;52.198;20.908;2023-12-20T06:45:32;22.67;;;17.00;;
21162;SDS011;10739;52.198;20.908;2023-12-20T06:47:58;24.58;;;18.08;;
21162;SDS011;10739;52.198;20.908;2023-12-20T06:50:24;30.63;;;19.55;;
21162;SDS011;10739;52.198;20.908;2023-12-20T06:52:51;24.15;;;17.65;;
21162;SDS011;10739;52.198;20.908;2023-12-20T06:55:18;27.60;;;18.08;;
21162;SDS011;10739;52.198;20.908;2023-12-20T06:57:44;27.50;;;18.25;;
21162;SDS011;10739;52.198;20.908;2023-12-20T07:00:11;24.00;;;18.05;;
21162;SDS011;10739;52.198;20.908;2023-12-20T07:02:38;23.33;;;16.67;;
21162;SDS011;10739;52.198;20.908;2023-12-20T07:05:04;23.73;;;17.50;;
21162;SDS011;10739;52.198;20.908;2023-12-20T07:07:31;22.75;;;15.52;;
21162;SDS011;10739;52.198;20.908;2023-12-20T07:09:57;24.58;;;18.10;;
21162;SDS011;10739;52.198;20.908;2023-12-20T07:12:24;23.35;;;16.45;;
21162;SDS011;10739;52.198;20.908;2023-12-20T07:14:50;24.70;;;17.40;;
21162;SDS011;10739;52.198;20.908;2023-12-20T07:17:16;21.15;;;15.80;;
21162;SDS011;10739;52.198;20.908;2023-12-20T07:19:43;25.58;;;17.10;;
21162;SDS011;10739;52.198;20.908;2023-12-20T07:22:09;24.70;;;17.63;;
21162;SDS011;10739;52.198;20.908;2023-12-20T07:24:35;25.13;;;15.77;;
21162;SDS011;10739;52.198;20.908;2023-12-20T07:27:01;21.35;;;15.80;;
21162;SDS011;10739;52.198;20.908;2023-12-20T07:29:28;24.30;;;17.10;;
21162;SDS011;10739;52.198;20.908;2023-12-20T07:31:55;22.73;;;15.52;;
21162;SDS011;10739;52.198;20.908;2023-12-20T07:34:21;23.10;;;16.40;;
21162;SDS011;10739;52.198;20.908;2023-12-20T07:36:48;21.33;;;15.85;;
21162;SDS011;10739;52.198;20.908;2023-12-20T07:39:14;21.23;;;15.48;;
21162;SDS011;10739;52.198;20.908;2023-12-20T07:41:43;23.20;;;15.30;;
21162;SDS011;10739;52.198;20.908;2023-12-20T07:44:09;20.48;;;14.50;;
21162;SDS011;10739;52.198;20.908;2023-12-20T07:46:36;19.80;;;14.75;;
21162;SDS011;10739;52.198;20.908;2023-12-20T07:49:02;21.30;;;14.80;;
21162;SDS011;10739;52.198;20.908;2023-12-20T07:51:30;20.75;;;13.48;;
21162;SDS011;10739;52.198;20.908;2023-12-20T07:53:56;22.63;;;14.73;;
21162;SDS011;10739;52.198;20.908;2023-12-20T07:56:23;19.88;;;13.80;;
21162;SDS011;10739;52.198;20.908;2023-12-20T07:58:49;19.55;;;14.02;;
21162;SDS011;10739;52.198;20.908;2023-12-20T08:01:16;20.15;;;13.55;;
21162;SDS011;10739;52.198;20.908;2023-12-20T08:03:43;19.08;;;13.73;;
21162;SDS011;10739;52.198;20.908;2023-12-20T08:06:09;20.88;;;13.75;;
21162;SDS011;10739;52.198;20.908;2023-12-20T08:08:36;17.73;;;12.85;;
21162;SDS011;10739;52.198;20.908;2023-12-20T08:11:02;20.10;;;14.15;;
21162;SDS011;10739;52.198;20.908;2023-12-20T08:13:29;19.00;;;11.68;;
21162;SDS011;10739;52.198;20.908;2023-12-20T08:15:55;21.52;;;13.27;;
21162;SDS011;10739;52.198;20.908;2023-12-20T08:18:21;19.02;;;13.88;;
21162;SDS011;10739;52.198;20.908;2023-12-20T08:20:48;18.55;;;13.07;;
21162;SDS011;10739;52.198;20.908;2023-12-20T08:23:15;18.08;;;13.27;;
21162;SDS011;10739;52.198;20.908;2023-12-20T08:25:41;17.23;;;13.40;;
21162;SDS011;10739;52.198;20.908;2023-12-20T08:28:08;19.55;;;14.95;;
21162;SDS011;10739;52.198;20.908;2023-12-20T08:30:34;20.02;;;13.20;;
21162;SDS011;10739;52.198;20.908;2023-12-20T08:33:00;18.95;;;13.00;;
21162;SDS011;10739;52.198;20.908;2023-12-20T08:35:27;19.98;;;12.25;;
21162;SDS011;10739;52.198;20.908;2023-12-20T08:37:54;18.80;;;12.90;;
21162;SDS011;10739;52.198;20.908;2023-12-20T08:40:21;18.08;;;12.73;;
21162;SDS011;10739;52.198;20.908;2023-12-20T08:42:47;19.00;;;13.63;;
21162;SDS011;10739;52.198;20.908;2023-12-20T08:45:13;27.13;;;14.38;;
21162;SDS011;10739;52.198;20.908;2023-12-20T08:47:39;19.27;;;13.73;;
21162;SDS011;10739;52.198;20.908;2023-12-20T08:50:06;22.08;;;15.52;;
21162;SDS011;10739;52.198;20.908;2023-12-20T08:52:33;27.30;;;16.63;;
21162;SDS011;10739;52.198;20.908;2023-12-20T08:54:59;27.38;;;18.38;;
21162;SDS011;10739;52.198;20.908;2023-12-20T08:57:25;30.05;;;19.20;;
21162;SDS011;10739;52.198;20.908;2023-12-20T08:59:52;25.77;;;17.75;;
21162;SDS011;10739;52.198;20.908;2023-12-20T09:02:18;28.98;;;19.98;;
21162;SDS011;10739;52.198;20.908;2023-12-20T09:04:44;27.58;;;17.00;;
21162;SDS011;10739;52.198;20.908;2023-12-20T09:07:20;23.55;;;16.75;;
21162;SDS011;10739;52.198;20.908;2023-12-20T09:09:52;23.08;;;14.70;;
21162;SDS011;10739;52.198;20.908;2023-12-20T09:12:19;21.95;;;14.75;;
21162;SDS011;10739;52.198;20.908;2023-12-20T09:14:49;21.75;;;13.98;;
21162;SDS011;10739;52.198;20.908;2023-12-20T09:17:17;22.40;;;15.45;;
21162;SDS011;10739;52.198;20.908;2023-12-20T09:19:44;20.75;;;14.00;;
21162;SDS011;10739;52.198;20.908;2023-12-20T09:22:11;27.38;;;14.73;;
21162;SDS011;10739;52.198;20.908;2023-12-20T09:24:38;19.83;;;14.48;;
21162;SDS011;10739;52.198;20.908;2023-12-20T09:27:05;19.58;;;13.60;;
21162;SDS011;10739;52.198;20.908;2023-12-20T09:29:31;18.90;;;13.40;;
21162;SDS011;10739;52.198;20.908;2023-12-20T09:31:58;21.40;;;14.80;;
21162;SDS011;10739;52.198;20.908;2023-12-20T09:34:24;22.02;;;14.40;;
21162;SDS011;10739;52.198;20.908;2023-12-20T09:36:51;22.35;;;14.73;;
21162;SDS011;10739;52.198;20.908;2023-12-20T09:39:18;23.40;;;15.20;;
21162;SDS011;10739;52.198;20.908;2023-12-20T09:42:03;28.90;;;15.88;;
21162;SDS011;10739;52.198;20.908;2023-12-20T09:44:31;23.48;;;15.73;;
21162;SDS011;10739;52.198;20.908;2023-12-20T09:47:03;21.50;;;15.50;;
21162;SDS011;10739;52.198;20.908;2023-12-20T09:49:30;22.83;;;15.52;;
21162;SDS011;10739;52.198;20.908;2023-12-20T09:51:59;28.92;;;15.80;;
21162;SDS011;10739;52.198;20.908;2023-12-20T09:54:28;22.38;;;16.50;;
21162;SDS011;10739;52.198;20.908;2023-12-20T09:56:56;22.92;;;16.65;;
21162;SDS011;10739;52.198;20.908;2023-12-20T09:59:22;22.02;;;15.82;;
21162;SDS011;10739;52.198;20.908;2023-12-20T10:01:49;19.52;;;14.07;;
21162;SDS011;10739;52.198;20.908;2023-12-20T10:04:19;17.92;;;14.00;;
21162;SDS011;10739;52.198;20.908;2023-12-20T10:06:45;25.48;;;13.30;;
21162;SDS011;10739;52.198;20.908;2023-12-20T10:09:13;15.00;;;10.95;;
21162;SDS011;10739;52.198;20.908;2023-12-20T10:11:39;12.48;;;9.98;;
21162;SDS011;10739;52.198;20.908;2023-12-20T10:14:06;14.60;;;10.98;;
21162;SDS011;10739;52.198;20.908;2023-12-20T10:16:33;15.32;;;10.65;;
21162;SDS011;10739;52.198;20.908;2023-12-20T10:18:59;13.07;;;10.60;;
21162;SDS011;10739;52.198;20.908;2023-12-20T10:21:26;13.20;;;10.45;;
21162;SDS011;10739;52.198;20.908;2023-12-20T10:23:54;14.55;;;10.27;;
21162;SDS011;10739;52.198;20.908;2023-12-20T10:26:22;16.77;;;11.43;;
21162;SDS011;10739;52.198;20.908;2023-12-20T10:28:56;17.92;;;11.25;;
21162;SDS011;10739;52.198;20.908;2023-12-20T10:31:29;14.77;;;10.02;;
21162;SDS011;10739;52.198;20.908;2023-12-20T10:34:15;13.98;;;10.35;;
21162;SDS011;10739;52.198;20.908;2023-12-20T10:36:41;14.82;;;10.70;;
21162;SDS011;10739;52.198;20.908;2023-12-20T10:39:07;14.98;;;10.35;;
21162;SDS011;10739;52.198;20.908;2023-12-20T10:41:38;13.93;;;10.52;;
21162;SDS011;10739;52.198;20.908;2023-12-20T10:44:07;13.82;;;10.63;;
21162;SDS011;10739;52.198;20.908;2023-12-20T10:46:36;17.45;;;10.77;;
21162;SDS011;10739;52.198;20.908;2023-12-20T10:49:05;13.38;;;10.80;;
21162;SDS011;10739;52.198;20.908;2023-12-20T10:51:34;13.82;;;10.65;;
21162;SDS011;10739;52.198;20.908;2023-12-20T10:54:02;12.90;;;10.75;;
21162;SDS011;10739;52.198;20.908;2023-12-20T10:56:30;14.85;;;11.68;;
21162;SDS011;10739;52.198;20.908;2023-12-20T10:58:59;18.95;;;11.27;;
21162;SDS011;10739;52.198;20.908;2023-12-20T11:01:30;15.57;;;12.60;;
21162;SDS011;10739;52.198;20.908;2023-12-20T11:03:58;13.43;;;10.55;;
21162;SDS011;10739;52.198;20.908;2023-12-20T11:17:21;11.73;;;9.30;;
21162;SDS011;10739;52.198;20.908;2023-12-20T11:22:26;14.68;;;9.43;;
21162;SDS011;10739;52.198;20.908;2023-12-20T11:27:34;14.85;;;11.57;;
21162;SDS011;10739;52.198;20.908;2023-12-20T11:30:03;17.30;;;12.98;;
21162;SDS011;10739;52.198;20.908;2023-12-20T11:32:35;19.52;;;13.82;;
21162;SDS011;10739;52.198;20.908;2023-12-20T11:37:36;19.77;;;15.23;;
21162;SDS011;10739;52.198;20.908;2023-12-20T11:40:06;22.90;;;14.88;;
21162;SDS011;10739;52.198;20.908;2023-12-20T11:42:39;19.50;;;15.38;;
21162;SDS011;10739;52.198;20.908;2023-12-20T11:45:10;23.63;;;14.02;;
21162;SDS011;10739;52.198;20.908;2023-12-20T11:47:45;17.02;;;13.32;;
21162;SDS011;10739;52.198;20.908;2023-12-20T11:50:15;17.30;;;12.98;;
21162;SDS011;10739;52.198;20.908;2023-12-20T11:52:45;15.13;;;12.25;;
21162;SDS011;10739;52.198;20.908;2023-12-20T11:55:13;15.07;;;11.82;;
21162;SDS011;10739;52.198;20.908;2023-12-20T11:57:39;19.95;;;13.05;;
21162;SDS011;10739;52.198;20.908;2023-12-20T12:00:06;15.20;;;11.45;;
21162;SDS011;10739;52.198;20.908;2023-12-20T12:02:33;14.02;;;11.10;;
21162;SDS011;10739;52.198;20.908;2023-12-20T12:05:00;19.55;;;11.52;;
21162;SDS011;10739;52.198;20.908;2023-12-20T12:07:26;14.95;;;10.63;;
21162;SDS011;10739;52.198;20.908;2023-12-20T12:09:52;13.07;;;10.80;;
21162;SDS011;10739;52.198;20.908;2023-12-20T12:12:19;15.27;;;11.13;;
21162;SDS011;10739;52.198;20.908;2023-12-20T12:14:45;15.05;;;10.95;;
21162;SDS011;10739;52.198;20.908;2023-12-20T12:17:13;14.18;;;10.20;;
21162;SDS011;10739;52.198;20.908;2023-12-20T12:19:40;15.82;;;11.77;;
21162;SDS011;10739;52.198;20.908;2023-12-20T12:22:13;15.20;;;11.13;;
21162;SDS011;10739;52.198;20.908;2023-12-20T12:24:45;15.77;;;12.27;;
21162;SDS011;10739;52.198;20.908;2023-12-20T12:27:13;16.75;;;12.50;;
21162;SDS011;10739;52.198;20.908;2023-12-20T12:29:39;17.90;;;11.20;;
21162;SDS011;10739;52.198;20.908;2023-12-20T12:32:06;14.13;;;11.50;;
21162;SDS011;10739;52.198;20.908;2023-12-20T12:34:35;18.95;;;12.27;;
21162;SDS011;10739;52.198;20.908;2023-12-20T12:37:03;13.10;;;11.55;;
21162;SDS011;10739;52.198;20.908;2023-12-20T12:39:30;14.38;;;11.35;;
21162;SDS011;10739;52.198;20.908;2023-12-20T12:41:56;16.38;;;11.95;;
21162;SDS011;10739;52.198;20.908;2023-12-20T12:44:23;15.80;;;12.43;;
21162;SDS011;10739;52.198;20.908;2023-12-20T12:46:50;19.75;;;12.18;;
21162;SDS011;10739;52.198;20.908;2023-12-20T12:49:21;19.40;;;13.20;;
21162;SDS011;10739;52.198;20.908;2023-12-20T12:51:48;16.52;;;12.73;;
21162;SDS011;10739;52.198;20.908;2023-12-20T12:54:14;18.92;;;12.77;;
21162;SDS011;10739;52.198;20.908;2023-12-20T12:56:44;18.13;;;12.52;;
21162;SDS011;10739;52.198;20.908;2023-12-20T12:59:12;18.77;;;12.70;;
21162;SDS011;10739;52.198;20.908;2023-12-20T13:01:38;14.90;;;11.77;;
21162;SDS011;10739;52.198;20.908;2023-12-20T13:04:05;18.55;;;11.98;;
21162;SDS011;10739;52.198;20.908;2023-12-20T13:06:36;17.27;;;11.82;;
21162;SDS011;10739;52.198;20.908;2023-12-20T13:09:03;17.17;;;11.27;;
21162;SDS011;10739;52.198;20.908;2023-12-20T13:11:30;17.83;;;11.73;;
21162;SDS011;10739;52.198;20.908;2023-12-20T13:13:57;14.82;;;11.50;;
21162;SDS011;10739;52.198;20.908;2023-12-20T13:16:23;18.17;;;12.85;;
21162;SDS011;10739;52.198;20.908;2023-12-20T13:18:50;16.75;;;11.35;;
21162;SDS011;10739;52.198;20.908;2023-12-20T13:21:16;15.57;;;12.02;;
21162;SDS011;10739;52.198;20.908;2023-12-20T13:23:42;18.60;;;12.15;;
21162;SDS011;10739;52.198;20.908;2023-12-20T13:26:09;15.32;;;10.98;;
21162;SDS011;10739;52.198;20.908;2023-12-20T13:28:36;17.13;;;10.75;;
21162;SDS011;10739;52.198;20.908;2023-12-20T13:31:02;15.48;;;10.77;;
21162;SDS011;10739;52.198;20.908;2023-12-20T13:33:29;16.58;;;11.35;;
21162;SDS011;10739;52.198;20.908;2023-12-20T13:35:55;15.65;;;11.27;;
21162;SDS011;10739;52.198;20.908;2023-12-20T13:38:23;15.43;;;10.20;;
21162;SDS011;10739;52.198;20.908;2023-12-20T13:40:50;14.27;;;10.57;;
21162;SDS011;10739;52.198;20.908;2023-12-20T13:43:16;13.77;;;9.30;;
21162;SDS011;10739;52.198;20.908;2023-12-20T13:45:46;18.05;;;10.68;;
21162;SDS011;10739;52.198;20.908;2023-12-20T13:48:13;15.70;;;10.20;;
21162;SDS011;10739;52.198;20.908;2023-12-20T13:50:39;15.98;;;10.48;;
21162;SDS011;10739;52.198;20.908;2023-12-20T13:53:06;15.95;;;10.73;;
21162;SDS011;10739;52.198;20.908;2023-12-20T13:55:32;12.77;;;9.57;;
21162;SDS011;10739;52.198;20.908;2023-12-20T13:57:59;13.15;;;10.32;;
21162;SDS011;10739;52.198;20.908;2023-12-20T14:00:25;12.40;;;10.07;;
21162;SDS011;10739;52.198;20.908;2023-12-20T14:02:51;13.55;;;9.93;;
21162;SDS011;10739;52.198;20.908;2023-12-20T14:05:18;13.93;;;9.63;;
21162;SDS011;10739;52.198;20.908;2023-12-20T14:07:44;13.48;;;10.05;;
21162;SDS011;10739;52.198;20.908;2023-12-20T14:10:12;14.43;;;10.43;;
21162;SDS011;10739;52.198;20.908;2023-12-20T14:12:39;12.90;;;9.80;;
21162;SDS011;10739;52.198;20.908;2023-12-20T14:15:06;14.38;;;9.85;;
21162;SDS011;10739;52.198;20.908;2023-12-20T14:17:37;13.45;;;10.15;;
21162;SDS011;10739;52.198;20.908;2023-12-20T14:20:07;15.88;;;9.93;;
21162;SDS011;10739;52.198;20.908;2023-12-20T14:22:34;15.30;;;10.48;;
21162;SDS011;10739;52.198;20.908;2023-12-20T14:25:01;11.73;;;9.07;;
21162;SDS011;10739;52.198;20.908;2023-12-20T14:27:28;11.13;;;8.52;;
21162;SDS011;10739;52.198;20.908;2023-12-20T14:29:54;13.93;;;8.10;;